sensor_id;sensor_type;location;lat;lon;timestamp;pressure;altitude;pressure_sealevel;temperature;humidity
9141;BME280;46330;50.822;7.126;2023-06-14T00:02:21;100647.75;;;19.33;43.04
9141;BME280;46330;50.822;7.126;2023-06-14T00:04:49;100650.28;;;19.34;43.14
9141;BME280;46330;50.822;7.126;2023-06-14T00:07:18;100643.44;;;19.30;43.23
9141;BME280;46330;50.822;7.126;2023-06-14T00:09:46;100647.13;;;19.28;43.24
9141;BME280;46330;50.822;7.126;2023-06-14T00:12:14;100632.91;;;19.29;43.27
9141;BME280;46330;50.822;7.126;2023-06-14T00:14:42;100642.84;;;19.25;43.13
9141;BME280;46330;50.822;7.126;2023-06-14T00:17:11;100646.06;;;19.15;43.62
9141;BME280;46330;50.822;7.126;2023-06-14T00:19:39;100638.91;;;19.17;43.37
9141;BME280;46330;50.822;7.126;2023-06-14T00:22:07;100652.22;;;19.15;43.65
9141;BME280;46330;50.822;7.126;2023-06-14T00:24:36;100653.19;;;19.14;43.69
9141;BME280;46330;50.822;7.126;2023-06-14T00:27:04;100653.16;;;18.99;43.95
9141;BME280;46330;50.822;7.126;2023-06-14T00:29:34;100657.59;;;18.98;43.80
9141;BME280;46330;50.822;7.126;2023-06-14T00:32:04;100660.66;;;18.91;43.96
9141;BME280;46330;50.822;7.126;2023-06-14T00:34:33;100657.47;;;18.84;43.90
9141;BME280;46330;50.822;7.126;2023-06-14T00:37:01;100657.84;;;18.94;44.38
9141;BME280;46330;50.822;7.126;2023-06-14T00:39:29;100656.91;;;18.95;44.90
9141;BME280;46330;50.822;7.126;2023-06-14T00:41:57;100658.50;;;18.82;46.11
9141;BME280;46330;50.822;7.126;2023-06-14T00:44:25;100666.22;;;18.69;46.48
9141;BME280;46330;50.822;7.126;2023-06-14T00:46:53;100668.91;;;18.52;47.49
9141;BME280;46330;50.822;7.126;2023-06-14T00:49:22;100671.13;;;18.42;48.05
9141;BME280;46330;50.822;7.126;2023-06-14T00:51:52;100673.53;;;18.30;48.11
9141;BME280;46330;50.822;7.126;2023-06-14T00:54:21;100681.56;;;18.28;48.75
9141;BME280;46330;50.822;7.126;2023-06-14T00:56:49;100677.03;;;18.13;49.74
9141;BME280;46330;50.822;7.126;2023-06-14T00:59:18;100683.34;;;18.10;49.65
9141;BME280;46330;50.822;7.126;2023-06-14T01:01:46;100680.28;;;18.01;50.32
9141;BME280;46330;50.822;7.126;2023-06-14T01:04:15;100685.88;;;17.95;51.44
9141;BME280;46330;50.822;7.126;2023-06-14T01:06:51;100679.25;;;17.86;52.25
9141;BME280;46330;50.822;7.126;2023-06-14T01:09:33;100688.50;;;17.78;52.53
9141;BME280;46330;50.822;7.126;2023-06-14T01:12:08;100687.84;;;17.72;53.07
9141;BME280;46330;50.822;7.126;2023-06-14T01:14:39;100690.31;;;17.58;53.29
9141;BME280;46330;50.822;7.126;2023-06-14T01:17:09;100690.06;;;17.63;54.07
9141;BME280;46330;50.822;7.126;2023-06-14T01:19:42;100692.81;;;17.61;54.13
9141;BME280;46330;50.822;7.126;2023-06-14T01:22:13;100692.09;;;17.58;55.05
9141;BME280;46330;50.822;7.126;2023-06-14T01:24:43;100695.66;;;17.57;54.99
9141;BME280;46330;50.822;7.126;2023-06-14T01:27:12;100691.31;;;17.54;55.75
9141;BME280;46330;50.822;7.126;2023-06-14T01:29:42;100693.19;;;17.52;55.79
9141;BME280;46330;50.822;7.126;2023-06-14T01:32:14;100694.13;;;17.51;56.84
9141;BME280;46330;50.822;7.126;2023-06-14T01:34:44;100692.91;;;17.40;56.58
9141;BME280;46330;50.822;7.126;2023-06-14T01:37:13;100690.75;;;17.29;58.07
9141;BME280;46330;50.822;7.126;2023-06-14T01:39:43;100700.56;;;17.27;57.53
9141;BME280;46330;50.822;7.126;2023-06-14T01:42:12;100698.66;;;17.10;58.28
9141;BME280;46330;50.822;7.126;2023-06-14T01:44:42;100704.44;;;17.00;58.86
9141;BME280;46330;50.822;7.126;2023-06-14T01:47:10;100703.19;;;16.88;59.58
9141;BME280;46330;50.822;7.126;2023-06-14T01:49:40;100702.25;;;16.89;59.54
9141;BME280;46330;50.822;7.126;2023-06-14T01:52:08;100700.41;;;16.91;59.71
9141;BME280;46330;50.822;7.126;2023-06-14T01:54:36;100703.03;;;16.91;59.54
9141;BME280;46330;50.822;7.126;2023-06-14T01:57:10;100697.13;;;16.86;59.76
9141;BME280;46330;50.822;7.126;2023-06-14T01:59:38;100693.75;;;16.83;60.48
9141;BME280;46330;50.822;7.126;2023-06-14T02:02:06;100707.03;;;16.81;59.82
9141;BME280;46330;50.822;7.126;2023-06-14T02:04:34;100706.38;;;16.76;60.48
9141;BME280;46330;50.822;7.126;2023-06-14T02:07:02;100705.72;;;16.71;60.59
9141;BME280;46330;50.822;7.126;2023-06-14T02:09:30;100697.78;;;16.71;60.00
9141;BME280;46330;50.822;7.126;2023-06-14T02:11:58;100698.78;;;16.69;59.37
9141;BME280;46330;50.822;7.126;2023-06-14T02:14:27;100698.78;;;16.69;59.15
9141;BME280;46330;50.822;7.126;2023-06-14T02:16:55;100704.22;;;16.65;59.08
9141;BME280;46330;50.822;7.126;2023-06-14T02:19:23;100701.75;;;16.61;59.62
9141;BME280;46330;50.822;7.126;2023-06-14T02:21:52;100705.75;;;16.49;60.30
9141;BME280;46330;50.822;7.126;2023-06-14T02:24:20;100713.13;;;16.41;59.92
9141;BME280;46330;50.822;7.126;2023-06-14T02:26:48;100708.47;;;16.26;60.72
9141;BME280;46330;50.822;7.126;2023-06-14T02:29:16;100712.41;;;16.16;61.11
9141;BME280;46330;50.822;7.126;2023-06-14T02:31:45;100707.22;;;16.14;62.48
9141;BME280;46330;50.822;7.126;2023-06-14T02:34:15;100714.34;;;16.12;62.75
9141;BME280;46330;50.822;7.126;2023-06-14T02:36:46;100714.50;;;16.08;63.09
9141;BME280;46330;50.822;7.126;2023-06-14T02:39:14;100715.50;;;16.05;62.31
9141;BME280;46330;50.822;7.126;2023-06-14T02:41:43;100717.66;;;15.96;63.02
9141;BME280;46330;50.822;7.126;2023-06-14T02:44:12;100711.22;;;15.81;64.42
9141;BME280;46330;50.822;7.126;2023-06-14T02:46:41;100719.06;;;15.83;64.43
9141;BME280;46330;50.822;7.126;2023-06-14T02:49:11;100723.47;;;15.82;64.89
9141;BME280;46330;50.822;7.126;2023-06-14T02:51:39;100719.97;;;15.82;64.91
9141;BME280;46330;50.822;7.126;2023-06-14T02:54:07;100720.81;;;15.82;64.68
9141;BME280;46330;50.822;7.126;2023-06-14T02:56:38;100724.41;;;15.81;64.58
9141;BME280;46330;50.822;7.126;2023-06-14T02:59:06;100720.41;;;15.71;65.50
9141;BME280;46330;50.822;7.126;2023-06-14T03:01:37;100723.44;;;15.60;66.23
9141;BME280;46330;50.822;7.126;2023-06-14T03:04:11;100735.16;;;15.53;65.88
9141;BME280;46330;50.822;7.126;2023-06-14T03:06:41;100730.84;;;15.51;66.02
9141;BME280;46330;50.822;7.126;2023-06-14T03:09:12;100733.75;;;15.43;66.15
9141;BME280;46330;50.822;7.126;2023-06-14T03:11:40;100730.28;;;15.41;66.30
9141;BME280;46330;50.822;7.126;2023-06-14T03:14:08;100734.03;;;15.36;66.60
9141;BME280;46330;50.822;7.126;2023-06-14T03:16:37;100729.97;;;15.27;66.89
9141;BME280;46330;50.822;7.126;2023-06-14T03:19:07;100733.38;;;15.29;66.34
9141;BME280;46330;50.822;7.126;2023-06-14T03:21:37;100738.88;;;15.23;67.72
9141;BME280;46330;50.822;7.126;2023-06-14T03:24:06;100744.22;;;15.22;67.72
9141;BME280;46330;50.822;7.126;2023-06-14T03:26:34;100746.75;;;15.25;67.35
9141;BME280;46330;50.822;7.126;2023-06-14T03:29:04;100745.09;;;15.22;67.83
9141;BME280;46330;50.822;7.126;2023-06-14T03:31:33;100748.63;;;15.21;67.24
9141;BME280;46330;50.822;7.126;2023-06-14T03:34:04;100751.94;;;15.26;66.70
9141;BME280;46330;50.822;7.126;2023-06-14T03:36:32;100751.84;;;15.29;66.32
9141;BME280;46330;50.822;7.126;2023-06-14T03:39:03;100754.44;;;15.31;65.64
9141;BME280;46330;50.822;7.126;2023-06-14T03:41:31;100750.84;;;15.32;65.27
9141;BME280;46330;50.822;7.126;2023-06-14T03:43:59;100759.50;;;15.35;65.26
9141;BME280;46330;50.822;7.126;2023-06-14T03:46:27;100752.59;;;15.33;65.22
9141;BME280;46330;50.822;7.126;2023-06-14T03:48:55;100759.69;;;15.31;64.33
9141;BME280;46330;50.822;7.126;2023-06-14T03:51:23;100763.31;;;15.28;65.33
9141;BME280;46330;50.822;7.126;2023-06-14T03:53:52;100759.69;;;15.31;64.51
9141;BME280;46330;50.822;7.126;2023-06-14T03:56:26;100760.59;;;15.30;66.14
9141;BME280;46330;50.822;7.126;2023-06-14T03:58:54;100766.66;;;15.32;66.04
9141;BME280;46330;50.822;7.126;2023-06-14T04:01:25;100765.88;;;15.30;64.58
9141;BME280;46330;50.822;7.126;2023-06-14T04:03:58;100771.94;;;15.32;66.02
9141;BME280;46330;50.822;7.126;2023-06-14T04:06:26;100770.91;;;15.36;65.07
9141;BME280;46330;50.822;7.126;2023-06-14T04:08:59;100771.88;;;15.35;64.78
9141;BME280;46330;50.822;7.126;2023-06-14T04:11:31;100777.13;;;15.35;64.67
9141;BME280;46330;50.822;7.126;2023-06-14T04:14:01;100782.28;;;15.38;65.43
9141;BME280;46330;50.822;7.126;2023-06-14T04:16:29;100782.78;;;15.49;66.25
9141;BME280;46330;50.822;7.126;2023-06-14T04:18:59;100789.66;;;15.53;65.26
9141;BME280;46330;50.822;7.126;2023-06-14T04:21:28;100793.84;;;15.58;66.49
9141;BME280;46330;50.822;7.126;2023-06-14T04:23:59;100796.41;;;15.60;66.81
9141;BME280;46330;50.822;7.126;2023-06-14T04:26:31;100794.25;;;15.71;66.24
9141;BME280;46330;50.822;7.126;2023-06-14T04:29:00;100799.97;;;15.82;66.73
9141;BME280;46330;50.822;7.126;2023-06-14T04:31:32;100802.06;;;15.96;66.62
9141;BME280;46330;50.822;7.126;2023-06-14T04:34:02;100798.66;;;16.16;66.58
9141;BME280;46330;50.822;7.126;2023-06-14T04:36:34;100802.72;;;16.24;63.84
9141;BME280;46330;50.822;7.126;2023-06-14T04:39:04;100805.72;;;16.37;63.54
9141;BME280;46330;50.822;7.126;2023-06-14T04:41:35;100807.66;;;16.53;62.99
9141;BME280;46330;50.822;7.126;2023-06-14T04:44:03;100810.38;;;16.74;62.10
9141;BME280;46330;50.822;7.126;2023-06-14T04:46:37;100813.97;;;16.93;60.79
9141;BME280;46330;50.822;7.126;2023-06-14T04:49:16;100816.41;;;17.17;59.80
9141;BME280;46330;50.822;7.126;2023-06-14T04:51:45;100816.19;;;17.42;59.07
9141;BME280;46330;50.822;7.126;2023-06-14T04:54:17;100818.63;;;17.67;57.66
9141;BME280;46330;50.822;7.126;2023-06-14T04:56:48;100819.94;;;17.77;55.45
9141;BME280;46330;50.822;7.126;2023-06-14T04:59:16;100818.34;;;17.92;54.06
9141;BME280;46330;50.822;7.126;2023-06-14T05:01:45;100818.28;;;18.31;53.04
9141;BME280;46330;50.822;7.126;2023-06-14T05:04:15;100829.19;;;18.42;51.78
9141;BME280;46330;50.822;7.126;2023-06-14T05:06:45;100820.84;;;18.51;49.99
9141;BME280;46330;50.822;7.126;2023-06-14T05:09:15;100825.25;;;18.86;48.99
9141;BME280;46330;50.822;7.126;2023-06-14T05:11:44;100828.53;;;19.43;48.35
9141;BME280;46330;50.822;7.126;2023-06-14T05:14:14;100828.56;;;19.58;46.38
9141;BME280;46330;50.822;7.126;2023-06-14T05:16:42;100841.16;;;19.55;46.26
9141;BME280;46330;50.822;7.126;2023-06-14T05:19:10;100838.03;;;19.79;45.02
9141;BME280;46330;50.822;7.126;2023-06-14T05:21:39;100833.16;;;20.03;43.85
9141;BME280;46330;50.822;7.126;2023-06-14T05:24:09;100832.28;;;20.35;42.34
9141;BME280;46330;50.822;7.126;2023-06-14T05:26:38;100832.75;;;19.95;43.32
9141;BME280;46330;50.822;7.126;2023-06-14T05:29:06;100833.47;;;19.66;43.69
9141;BME280;46330;50.822;7.126;2023-06-14T05:31:36;100838.13;;;19.94;43.02
9141;BME280;46330;50.822;7.126;2023-06-14T05:34:04;100840.25;;;19.87;42.47
9141;BME280;46330;50.822;7.126;2023-06-14T05:36:33;100838.25;;;20.08;42.38
9141;BME280;46330;50.822;7.126;2023-06-14T05:39:03;100842.41;;;20.12;41.91
9141;BME280;46330;50.822;7.126;2023-06-14T05:41:32;100846.22;;;19.75;41.92
9141;BME280;46330;50.822;7.126;2023-06-14T05:44:01;100842.94;;;20.03;41.93
9141;BME280;46330;50.822;7.126;2023-06-14T05:46:29;100850.72;;;20.38;41.31
9141;BME280;46330;50.822;7.126;2023-06-14T05:48:58;100850.94;;;20.65;41.27
9141;BME280;46330;50.822;7.126;2023-06-14T05:51:26;100855.81;;;20.73;40.81
9141;BME280;46330;50.822;7.126;2023-06-14T05:53:54;100856.41;;;20.62;40.96
9141;BME280;46330;50.822;7.126;2023-06-14T05:56:23;100856.69;;;20.73;40.50
9141;BME280;46330;50.822;7.126;2023-06-14T05:58:50;100859.34;;;21.33;40.12
9141;BME280;46330;50.822;7.126;2023-06-14T06:01:18;100858.19;;;21.23;39.65
9141;BME280;46330;50.822;7.126;2023-06-14T06:03:46;100860.25;;;21.48;39.39
9141;BME280;46330;50.822;7.126;2023-06-14T06:06:16;100866.00;;;21.26;39.39
9141;BME280;46330;50.822;7.126;2023-06-14T06:08:44;100858.81;;;21.42;39.27
9141;BME280;46330;50.822;7.126;2023-06-14T06:11:12;100860.22;;;21.62;38.49
9141;BME280;46330;50.822;7.126;2023-06-14T06:13:40;100867.22;;;22.07;38.13
9141;BME280;46330;50.822;7.126;2023-06-14T06:16:08;100868.72;;;22.25;37.83
9141;BME280;46330;50.822;7.126;2023-06-14T06:18:36;100870.53;;;21.82;38.63
9141;BME280;46330;50.822;7.126;2023-06-14T06:21:05;100874.72;;;22.14;37.96
9141;BME280;46330;50.822;7.126;2023-06-14T06:23:35;100873.75;;;22.15;37.91
9141;BME280;46330;50.822;7.126;2023-06-14T06:26:03;100866.53;;;21.89;38.01
9141;BME280;46330;50.822;7.126;2023-06-14T06:28:31;100878.63;;;22.09;37.91
9141;BME280;46330;50.822;7.126;2023-06-14T06:30:59;100879.56;;;22.22;37.80
9141;BME280;46330;50.822;7.126;2023-06-14T06:33:31;100879.75;;;22.74;37.50
9141;BME280;46330;50.822;7.126;2023-06-14T06:35:59;100885.56;;;23.32;36.39
9141;BME280;46330;50.822;7.126;2023-06-14T06:38:27;100883.66;;;22.95;36.61
9141;BME280;46330;50.822;7.126;2023-06-14T06:40:56;100893.97;;;23.66;35.72
9141;BME280;46330;50.822;7.126;2023-06-14T06:43:24;100896.53;;;23.15;36.53
9141;BME280;46330;50.822;7.126;2023-06-14T06:45:56;100894.56;;;24.07;35.47
9141;BME280;46330;50.822;7.126;2023-06-14T06:48:24;100897.28;;;23.82;34.89
9141;BME280;46330;50.822;7.126;2023-06-14T06:50:52;100892.25;;;24.51;34.58
9141;BME280;46330;50.822;7.126;2023-06-14T06:53:20;100911.38;;;24.94;34.20
9141;BME280;46330;50.822;7.126;2023-06-14T06:56:06;100893.53;;;24.58;33.32
9141;BME280;46330;50.822;7.126;2023-06-14T06:58:34;100904.38;;;26.07;32.20
9141;BME280;46330;50.822;7.126;2023-06-14T07:01:02;100899.84;;;25.29;32.56
9141;BME280;46330;50.822;7.126;2023-06-14T07:03:30;100904.28;;;25.06;32.66
9141;BME280;46330;50.822;7.126;2023-06-14T07:05:58;100902.66;;;25.73;31.74
9141;BME280;46330;50.822;7.126;2023-06-14T07:08:27;100907.84;;;25.18;32.99
9141;BME280;46330;50.822;7.126;2023-06-14T07:10:54;100905.75;;;24.86;32.69
9141;BME280;46330;50.822;7.126;2023-06-14T07:13:24;100895.41;;;25.17;31.76
9141;BME280;46330;50.822;7.126;2023-06-14T07:15:54;100905.53;;;24.53;32.64
9141;BME280;46330;50.822;7.126;2023-06-14T07:18:23;100901.00;;;24.17;34.41
9141;BME280;46330;50.822;7.126;2023-06-14T07:20:51;100893.56;;;24.82;32.89
9141;BME280;46330;50.822;7.126;2023-06-14T07:23:20;100889.97;;;25.29;31.63
9141;BME280;46330;50.822;7.126;2023-06-14T07:25:49;100909.50;;;25.42;31.37
9141;BME280;46330;50.822;7.126;2023-06-14T07:28:18;100900.72;;;25.97;31.39
9141;BME280;46330;50.822;7.126;2023-06-14T07:30:47;100903.66;;;25.48;31.90
9141;BME280;46330;50.822;7.126;2023-06-14T07:33:15;100911.31;;;25.88;30.62
9141;BME280;46330;50.822;7.126;2023-06-14T07:35:43;100911.41;;;25.53;31.12
9141;BME280;46330;50.822;7.126;2023-06-14T07:38:12;100908.25;;;27.13;29.20
9141;BME280;46330;50.822;7.126;2023-06-14T07:40:41;100911.41;;;27.70;27.79
9141;BME280;46330;50.822;7.126;2023-06-14T07:43:09;100909.06;;;27.87;28.11
9141;BME280;46330;50.822;7.126;2023-06-14T07:45:37;100906.53;;;26.69;29.50
9141;BME280;46330;50.822;7.126;2023-06-14T07:48:12;100900.25;;;28.36;27.14
9141;BME280;46330;50.822;7.126;2023-06-14T07:50:40;100898.28;;;28.47;27.05
9141;BME280;46330;50.822;7.126;2023-06-14T07:53:08;100902.91;;;27.75;25.82
9141;BME280;46330;50.822;7.126;2023-06-14T07:55:36;100902.31;;;27.71;26.19
9141;BME280;46330;50.822;7.126;2023-06-14T07:58:19;100905.69;;;28.15;26.04
9141;BME280;46330;50.822;7.126;2023-06-14T08:00:47;100905.06;;;27.40;26.47
9141;BME280;46330;50.822;7.126;2023-06-14T08:03:17;100907.81;;;28.11;25.16
9141;BME280;46330;50.822;7.126;2023-06-14T08:05:46;100900.53;;;28.92;25.03
9141;BME280;46330;50.822;7.126;2023-06-14T08:08:15;100911.44;;;27.80;25.40
9141;BME280;46330;50.822;7.126;2023-06-14T08:10:43;100906.28;;;28.68;24.31
9141;BME280;46330;50.822;7.126;2023-06-14T08:13:11;100907.22;;;28.48;24.37
9141;BME280;46330;50.822;7.126;2023-06-14T08:15:40;100894.38;;;30.22;22.07
9141;BME280;46330;50.822;7.126;2023-06-14T08:18:08;100898.66;;;29.59;23.06
9141;BME280;46330;50.822;7.126;2023-06-14T08:20:37;100904.75;;;28.25;23.87
9141;BME280;46330;50.822;7.126;2023-06-14T08:23:06;100907.94;;;28.10;23.91
9141;BME280;46330;50.822;7.126;2023-06-14T08:25:35;100911.59;;;27.58;23.75
9141;BME280;46330;50.822;7.126;2023-06-14T08:28:05;100914.00;;;27.82;24.92
9141;BME280;46330;50.822;7.126;2023-06-14T08:30:33;100900.03;;;28.58;23.78
9141;BME280;46330;50.822;7.126;2023-06-14T08:33:01;100912.41;;;28.70;22.58
9141;BME280;46330;50.822;7.126;2023-06-14T08:35:43;100903.28;;;27.91;23.95
9141;BME280;46330;50.822;7.126;2023-06-14T08:38:11;100910.72;;;28.29;23.23
9141;BME280;46330;50.822;7.126;2023-06-14T08:40:41;100908.47;;;28.93;22.35
9141;BME280;46330;50.822;7.126;2023-06-14T08:43:09;100904.25;;;30.04;21.66
9141;BME280;46330;50.822;7.126;2023-06-14T08:45:37;100905.41;;;27.67;23.29
9141;BME280;46330;50.822;7.126;2023-06-14T08:48:08;100908.44;;;29.70;22.10
9141;BME280;46330;50.822;7.126;2023-06-14T08:50:37;100898.75;;;29.77;22.76
9141;BME280;46330;50.822;7.126;2023-06-14T08:53:11;100892.91;;;30.01;22.33
9141;BME280;46330;50.822;7.126;2023-06-14T08:55:46;100900.34;;;31.16;20.24
9141;BME280;46330;50.822;7.126;2023-06-14T08:58:15;100898.09;;;31.11;20.97
9141;BME280;46330;50.822;7.126;2023-06-14T09:00:44;100888.41;;;32.63;20.59
9141;BME280;46330;50.822;7.126;2023-06-14T09:03:12;100894.88;;;32.28;19.62
9141;BME280;46330;50.822;7.126;2023-06-14T09:05:41;100891.72;;;28.99;22.20
9141;BME280;46330;50.822;7.126;2023-06-14T09:08:12;100886.91;;;30.34;21.12
9141;BME280;46330;50.822;7.126;2023-06-14T09:10:40;100884.38;;;28.92;23.12
9141;BME280;46330;50.822;7.126;2023-06-14T09:13:08;100888.50;;;29.24;22.47
9141;BME280;46330;50.822;7.126;2023-06-14T09:15:36;100887.22;;;30.58;21.22
9141;BME280;46330;50.822;7.126;2023-06-14T09:18:04;100899.72;;;28.51;23.26
9141;BME280;46330;50.822;7.126;2023-06-14T09:20:33;100892.50;;;29.86;21.70
9141;BME280;46330;50.822;7.126;2023-06-14T09:23:02;100889.03;;;31.38;20.88
9141;BME280;46330;50.822;7.126;2023-06-14T09:25:41;100892.19;;;32.86;19.06
9141;BME280;46330;50.822;7.126;2023-06-14T09:28:09;100895.63;;;33.69;19.63
9141;BME280;46330;50.822;7.126;2023-06-14T09:30:38;100900.63;;;31.30;20.63
9141;BME280;46330;50.822;7.126;2023-06-14T09:33:06;100905.19;;;29.66;21.22
9141;BME280;46330;50.822;7.126;2023-06-14T09:35:35;100893.81;;;30.91;21.10
9141;BME280;46330;50.822;7.126;2023-06-14T09:38:04;100906.97;;;32.08;20.19
9141;BME280;46330;50.822;7.126;2023-06-14T09:40:36;100898.06;;;30.21;21.13
9141;BME280;46330;50.822;7.126;2023-06-14T09:43:06;100903.59;;;31.45;20.04
9141;BME280;46330;50.822;7.126;2023-06-14T09:45:37;100909.66;;;32.08;19.73
9141;BME280;46330;50.822;7.126;2023-06-14T09:48:07;100899.22;;;32.13;18.94
9141;BME280;46330;50.822;7.126;2023-06-14T09:50:36;100910.59;;;32.25;19.37
9141;BME280;46330;50.822;7.126;2023-06-14T09:53:07;100910.28;;;31.76;19.36
9141;BME280;46330;50.822;7.126;2023-06-14T09:55:36;100897.84;;;32.09;19.25
9141;BME280;46330;50.822;7.126;2023-06-14T09:58:07;100903.91;;;32.03;19.68
9141;BME280;46330;50.822;7.126;2023-06-14T10:00:38;100908.97;;;29.93;20.72
9141;BME280;46330;50.822;7.126;2023-06-14T10:03:12;100901.63;;;31.98;20.24
9141;BME280;46330;50.822;7.126;2023-06-14T10:05:41;100901.31;;;32.02;19.45
9141;BME280;46330;50.822;7.126;2023-06-14T10:08:14;100912.00;;;32.37;19.01
9141;BME280;46330;50.822;7.126;2023-06-14T10:10:45;100908.97;;;31.02;20.41
9141;BME280;46330;50.822;7.126;2023-06-14T10:13:14;100908.97;;;32.40;18.94
9141;BME280;46330;50.822;7.126;2023-06-14T10:15:52;100908.13;;;32.47;18.92
9141;BME280;46330;50.822;7.126;2023-06-14T10:18:31;100896.59;;;32.87;18.77
9141;BME280;46330;50.822;7.126;2023-06-14T10:21:08;100891.81;;;34.02;17.95
9141;BME280;46330;50.822;7.126;2023-06-14T10:23:40;100887.81;;;33.42;18.70
9141;BME280;46330;50.822;7.126;2023-06-14T10:26:18;100887.31;;;33.71;17.47
9141;BME280;46330;50.822;7.126;2023-06-14T10:28:56;100889.16;;;34.72;17.86
9141;BME280;46330;50.822;7.126;2023-06-14T10:31:40;100892.63;;;32.16;18.53
9141;BME280;46330;50.822;7.126;2023-06-14T10:34:09;100887.94;;;32.84;18.16
9141;BME280;46330;50.822;7.126;2023-06-14T10:36:41;100894.91;;;31.77;19.53
9141;BME280;46330;50.822;7.126;2023-06-14T10:39:15;100880.81;;;31.99;19.69
9141;BME280;46330;50.822;7.126;2023-06-14T10:41:52;100885.56;;;30.75;20.80
9141;BME280;46330;50.822;7.126;2023-06-14T10:44:34;100886.28;;;29.76;22.26
9141;BME280;46330;50.822;7.126;2023-06-14T10:47:10;100886.06;;;31.06;21.21
9141;BME280;46330;50.822;7.126;2023-06-14T10:49:50;100888.22;;;31.89;20.37
9141;BME280;46330;50.822;7.126;2023-06-14T10:52:24;100893.72;;;31.10;20.79
9141;BME280;46330;50.822;7.126;2023-06-14T10:55:05;100880.81;;;32.75;19.21
9141;BME280;46330;50.822;7.126;2023-06-14T10:57:38;100882.41;;;33.18;18.42
9141;BME280;46330;50.822;7.126;2023-06-14T11:00:09;100887.47;;;33.77;17.87
9141;BME280;46330;50.822;7.126;2023-06-14T11:02:53;100883.94;;;34.24;17.68
9141;BME280;46330;50.822;7.126;2023-06-14T11:05:28;100887.63;;;32.87;18.95
9141;BME280;46330;50.822;7.126;2023-06-14T11:08:18;100893.41;;;32.08;20.09
9141;BME280;46330;50.822;7.126;2023-06-14T11:10:58;100879.78;;;32.76;20.30
9141;BME280;46330;50.822;7.126;2023-06-14T11:13:28;100892.97;;;34.16;18.98
9141;BME280;46330;50.822;7.126;2023-06-14T11:15:59;100877.25;;;33.95;18.67
9141;BME280;46330;50.822;7.126;2023-06-14T11:18:28;100885.75;;;32.95;19.72
9141;BME280;46330;50.822;7.126;2023-06-14T11:20:56;100885.97;;;31.15;22.15
9141;BME280;46330;50.822;7.126;2023-06-14T11:23:24;100882.97;;;32.13;20.72
9141;BME280;46330;50.822;7.126;2023-06-14T11:25:52;100882.66;;;31.04;22.28
9141;BME280;46330;50.822;7.126;2023-06-14T11:28:21;100881.56;;;32.51;20.62
9141;BME280;46330;50.822;7.126;2023-06-14T11:31:01;100873.94;;;33.53;19.36
9141;BME280;46330;50.822;7.126;2023-06-14T11:33:29;100885.25;;;33.81;19.60
9141;BME280;46330;50.822;7.126;2023-06-14T11:35:57;100884.38;;;32.83;20.80
9141;BME280;46330;50.822;7.126;2023-06-14T11:38:25;100886.56;;;31.70;21.95
9141;BME280;46330;50.822;7.126;2023-06-14T11:40:53;100871.75;;;29.96;23.77
9141;BME280;46330;50.822;7.126;2023-06-14T11:43:21;100880.69;;;31.75;21.62
9141;BME280;46330;50.822;7.126;2023-06-14T11:45:49;100870.66;;;31.93;21.22
9141;BME280;46330;50.822;7.126;2023-06-14T11:48:38;100888.53;;;32.12;21.39
9141;BME280;46330;50.822;7.126;2023-06-14T11:51:07;100886.91;;;30.34;22.89
9141;BME280;46330;50.822;7.126;2023-06-14T11:53:35;100887.22;;;30.58;22.07
9141;BME280;46330;50.822;7.126;2023-06-14T11:56:03;100889.81;;;30.23;22.49
9141;BME280;46330;50.822;7.126;2023-06-14T11:58:32;100890.13;;;32.22;21.17
9141;BME280;46330;50.822;7.126;2023-06-14T12:01:00;100878.34;;;31.80;20.94
9141;BME280;46330;50.822;7.126;2023-06-14T12:03:28;100883.31;;;30.88;21.24
9141;BME280;46330;50.822;7.126;2023-06-14T12:06:06;100885.34;;;31.21;21.52
9141;BME280;46330;50.822;7.126;2023-06-14T12:08:36;100887.59;;;31.69;21.21
9141;BME280;46330;50.822;7.126;2023-06-14T12:11:06;100898.56;;;30.62;20.78
9141;BME280;46330;50.822;7.126;2023-06-14T12:13:38;100883.97;;;30.27;21.38
9141;BME280;46330;50.822;7.126;2023-06-14T12:16:07;100886.25;;;30.77;21.00
9141;BME280;46330;50.822;7.126;2023-06-14T12:18:35;100898.16;;;29.93;21.38
9141;BME280;46330;50.822;7.126;2023-06-14T12:21:06;100893.81;;;31.26;20.76
9141;BME280;46330;50.822;7.126;2023-06-14T12:23:44;100900.09;;;32.22;19.60
9141;BME280;46330;50.822;7.126;2023-06-14T12:26:14;100890.81;;;30.94;21.31
9141;BME280;46330;50.822;7.126;2023-06-14T12:28:44;100895.84;;;29.61;22.31
9141;BME280;46330;50.822;7.126;2023-06-14T12:31:13;100888.19;;;30.39;21.48
9141;BME280;46330;50.822;7.126;2023-06-14T12:33:42;100896.47;;;30.28;22.55
9141;BME280;46330;50.822;7.126;2023-06-14T12:36:13;100894.47;;;30.30;21.81
9141;BME280;46330;50.822;7.126;2023-06-14T12:38:42;100889.97;;;30.49;22.30
9141;BME280;46330;50.822;7.126;2023-06-14T12:41:10;100893.13;;;28.84;23.99
9141;BME280;46330;50.822;7.126;2023-06-14T12:43:38;100888.91;;;29.20;23.11
9141;BME280;46330;50.822;7.126;2023-06-14T12:46:06;100894.19;;;29.97;22.67
9141;BME280;46330;50.822;7.126;2023-06-14T12:48:34;100897.31;;;30.29;21.96
9141;BME280;46330;50.822;7.126;2023-06-14T12:51:02;100897.88;;;31.48;21.16
9141;BME280;46330;50.822;7.126;2023-06-14T12:53:31;100897.47;;;32.38;19.68
9141;BME280;46330;50.822;7.126;2023-06-14T12:55:59;100899.94;;;31.98;19.89
9141;BME280;46330;50.822;7.126;2023-06-14T12:58:27;100881.38;;;30.35;22.08
9141;BME280;46330;50.822;7.126;2023-06-14T13:00:55;100904.50;;;31.28;21.13
9141;BME280;46330;50.822;7.126;2023-06-14T13:03:23;100907.47;;;30.08;22.81
9141;BME280;46330;50.822;7.126;2023-06-14T13:05:51;100905.16;;;30.22;22.20
9141;BME280;46330;50.822;7.126;2023-06-14T13:08:19;100893.50;;;30.94;21.65
9141;BME280;46330;50.822;7.126;2023-06-14T13:10:52;100907.88;;;31.48;21.38
9141;BME280;46330;50.822;7.126;2023-06-14T13:13:20;100903.94;;;31.60;20.68
9141;BME280;46330;50.822;7.126;2023-06-14T13:15:48;100912.66;;;31.36;20.96